Time;durP1;ratioP1;P1;durP2;ratioP2;P2;SDS_P1;SDS_P2;PMS_P1;PMS_P2;Temp;Humidity;BMP_temperature;BMP_pressure;BME280_temperature;BME280_humidity;BME280_pressure;Samples;Min_cycle;Max_cycle;Signal;HPM_P1;HPM_P2
2022/05/19 00:01:04;;;;;;;;;;;18.30;99.90;;;;;;5043672;28;19921;-70
2022/05/19 00:03:31;;;;;;;;;;;18.20;99.90;;;;;;5043871;28;20172;-69
2022/05/19 00:05:58;;;;;;;;;;;18.10;99.90;;;;;;5042600;28;20150;-70
2022/05/19 00:08:25;;;;;;;;;;;18.10;99.90;;;;;;5043744;28;19963;-70
2022/05/19 00:10:55;;;;;;;;;;;18.00;99.90;;;;;;5043291;28;19925;-69
2022/05/19 00:13:22;;;;;;;;;;;18.00;99.90;;;;;;5043229;28;19980;-69
2022/05/19 00:15:48;;;;;;;;;;;18.00;99.90;;;;;;5042595;28;19920;-70
2022/05/19 00:18:15;;;;;;;;;;;17.90;99.90;;;;;;5043059;28;20204;-69
2022/05/19 00:20:41;;;;;;;;;;;17.90;99.90;;;;;;5042825;28;19921;-69
2022/05/19 00:23:08;;;;;;;;;;;17.80;99.90;;;;;;5043270;28;20223;-70
2022/05/19 00:25:34;;;;;;;;;;;17.80;99.90;;;;;;5039793;28;19921;-70
2022/05/19 00:28:02;;;;;;;;;;;17.70;99.90;;;;;;5043196;28;19921;-69
2022/05/19 00:30:29;;;;;;;;;;;17.70;99.90;;;;;;5043094;28;19928;-69
2022/05/19 00:32:56;;;;;;;;;;;17.60;99.90;;;;;;5043397;28;19921;-69
2022/05/19 00:35:22;;;;;;;;;;;17.60;99.90;;;;;;5040003;28;20263;-69
2022/05/19 00:37:49;;;;;;;;;;;17.50;99.90;;;;;;5042994;28;19921;-70
2022/05/19 00:40:16;;;;;;;;;;;17.40;99.90;;;;;;5043282;28;19925;-70
2022/05/19 00:42:46;;;;;;;;;;;17.40;99.90;;;;;;5042817;28;20125;-69
2022/05/19 00:45:15;;;;;;;;;;;17.40;99.90;;;;;;5042621;28;19927;-70
2022/05/19 00:47:44;;;;;;;;;;;17.30;99.90;;;;;;5042792;28;19921;-70
2022/05/19 00:50:19;;;;;;;;;;;17.20;99.90;;;;;;5043322;28;20000;-70
2022/05/19 00:52:46;;;;;;;;;;;17.10;99.90;;;;;;5042868;28;20178;-69
2022/05/19 00:55:14;;;;;;;;;;;17.00;99.90;;;;;;5042257;28;19921;-69
2022/05/19 00:57:42;;;;;;;;;;;16.90;99.90;;;;;;5043041;28;19944;-69
2022/05/19 01:00:10;;;;;;;;;;;16.80;99.90;;;;;;5042805;28;20212;-69
2022/05/19 01:02:40;;;;;;;;;;;16.70;99.90;;;;;;5042698;28;19921;-69
2022/05/19 01:05:09;;;;;;;;;;;16.70;99.90;;;;;;5042706;28;19921;-69
2022/05/19 01:07:37;;;;;;;;;;;16.70;99.90;;;;;;5042563;28;19927;-69
2022/05/19 01:10:05;;;;;;;;;;;16.60;99.90;;;;;;5042810;28;19980;-70
2022/05/19 01:12:32;;;;;;;;;;;16.50;99.90;;;;;;5042816;28;19988;-69
2022/05/19 01:15:00;;;;;;;;;;;16.50;99.90;;;;;;5042686;28;20108;-69
2022/05/19 01:17:27;;;;;;;;;;;16.40;99.90;;;;;;5042086;28;19927;-69
2022/05/19 01:19:57;;;;;;;;;;;16.30;99.90;;;;;;5042942;28;19921;-69
2022/05/19 01:22:36;;;;;;;;;;;16.30;99.90;;;;;;5042966;28;19944;-70
2022/05/19 01:25:05;;;;;;;;;;;16.30;99.90;;;;;;5042692;28;19921;-69
2022/05/19 01:27:33;;;;;;;;;;;16.20;99.90;;;;;;5041938;28;19921;-69
2022/05/19 01:29:59;;;;;;;;;;;16.20;99.90;;;;;;5042445;28;19929;-69
2022/05/19 01:32:27;;;;;;;;;;;16.10;99.90;;;;;;5042658;28;19929;-70
2022/05/19 01:34:54;;;;;;;;;;;16.10;99.90;;;;;;5045565;28;20264;-69
2022/05/19 01:37:20;;;;;;;;;;;16.10;99.90;;;;;;5045704;28;19921;-70
2022/05/19 01:39:50;;;;;;;;;;;16.00;99.90;;;;;;5045863;28;20263;-70
2022/05/19 01:42:23;;;;;;;;;;;16.00;99.90;;;;;;5045644;28;19925;-70
2022/05/19 01:44:57;;;;;;;;;;;16.00;99.90;;;;;;5045843;28;19921;-70
2022/05/19 01:47:27;;;;;;;;;;;15.90;99.90;;;;;;5045407;28;19929;-69
2022/05/19 01:49:57;;;;;;;;;;;15.90;99.90;;;;;;5044329;28;19921;-70
2022/05/19 01:52:25;;;;;;;;;;;15.80;99.90;;;;;;5046069;28;19952;-69
2022/05/19 01:54:56;;;;;;;;;;;15.90;99.90;;;;;;5045758;28;19959;-69
2022/05/19 01:57:25;;;;;;;;;;;15.80;99.90;;;;;;5044979;28;19936;-70
2022/05/19 01:59:56;;;;;;;;;;;15.70;99.90;;;;;;5043565;28;19921;-70
2022/05/19 02:02:27;;;;;;;;;;;15.60;99.90;;;;;;5045681;28;19960;-69
2022/05/19 02:04:58;;;;;;;;;;;15.60;99.90;;;;;;5045598;28;19921;-69
2022/05/19 02:07:25;;;;;;;;;;;15.50;99.90;;;;;;5044837;28;19921;-69
2022/05/19 02:09:56;;;;;;;;;;;15.50;99.90;;;;;;5045398;28;19921;-69
2022/05/19 02:12:22;;;;;;;;;;;15.40;99.90;;;;;;5045674;28;19921;-70
2022/05/19 02:14:50;;;;;;;;;;;15.40;99.90;;;;;;5045414;28;20144;-69
2022/05/19 02:17:21;;;;;;;;;;;15.40;99.90;;;;;;5044600;28;19947;-69
2022/05/19 02:19:50;;;;;;;;;;;15.40;99.90;;;;;;5045482;28;19921;-69
2022/05/19 02:22:17;;;;;;;;;;;15.20;99.90;;;;;;5045185;28;20090;-69
2022/05/19 02:24:46;;;;;;;;;;;15.20;99.90;;;;;;5045237;28;19928;-69
2022/05/19 02:27:24;;;;;;;;;;;15.20;99.90;;;;;;5044803;28;19924;-69
2022/05/19 02:29:51;;;;;;;;;;;15.20;99.90;;;;;;5045224;28;19929;-69
2022/05/19 02:32:19;;;;;;;;;;;15.10;99.90;;;;;;5045110;28;19960;-69
2022/05/19 02:34:45;;;;;;;;;;;15.10;99.90;;;;;;5044615;28;20276;-69
2022/05/19 02:37:12;;;;;;;;;;;15.00;99.90;;;;;;5044596;28;20133;-70
2022/05/19 02:39:39;;;;;;;;;;;15.00;99.90;;;;;;5045050;28;19983;-69
2022/05/19 02:42:06;;;;;;;;;;;14.90;99.90;;;;;;5045115;28;19960;-70
2022/05/19 02:44:33;;;;;;;;;;;14.90;99.90;;;;;;5044206;28;19957;-69
2022/05/19 02:46:59;;;;;;;;;;;14.90;99.90;;;;;;5043859;28;20124;-70
2022/05/19 02:49:27;;;;;;;;;;;14.80;99.90;;;;;;5044884;28;20116;-69
2022/05/19 02:51:54;;;;;;;;;;;14.80;99.90;;;;;;5044647;28;19921;-69
2022/05/19 02:54:21;;;;;;;;;;;14.80;99.90;;;;;;5044381;28;19921;-69
2022/05/19 02:56:48;;;;;;;;;;;14.80;99.90;;;;;;5043853;28;19959;-70
2022/05/19 02:59:15;;;;;;;;;;;14.70;99.90;;;;;;5042090;28;20119;-69
2022/05/19 03:01:41;;;;;;;;;;;14.60;99.90;;;;;;5044839;28;19921;-69
2022/05/19 03:04:08;;;;;;;;;;;14.60;99.90;;;;;;5044104;28;19929;-69
2022/05/19 03:06:36;;;;;;;;;;;14.50;99.90;;;;;;5043657;28;19928;-69
2022/05/19 03:09:04;;;;;;;;;;;14.50;99.90;;;;;;5044476;28;20216;-69
2022/05/19 03:11:30;;;;;;;;;;;14.50;99.90;;;;;;5044402;28;19921;-69
2022/05/19 03:13:57;;;;;;;;;;;14.50;99.90;;;;;;5044512;28;20080;-69
2022/05/19 03:16:24;;;;;;;;;;;14.50;99.90;;;;;;5043169;28;19927;-73
2022/05/19 03:18:50;;;;;;;;;;;14.50;99.90;;;;;;5044251;28;20074;-69
2022/05/19 03:21:17;;;;;;;;;;;14.40;99.90;;;;;;5044296;28;19927;-69
2022/05/19 03:23:45;;;;;;;;;;;14.40;99.90;;;;;;5044053;28;19921;-69
2022/05/19 03:26:12;;;;;;;;;;;14.30;99.90;;;;;;5040269;28;20217;-69
2022/05/19 03:28:38;;;;;;;;;;;14.30;99.90;;;;;;5043947;28;19921;-69
2022/05/19 03:31:05;;;;;;;;;;;14.20;99.90;;;;;;5043708;28;19921;-69
2022/05/19 03:33:32;;;;;;;;;;;14.20;99.90;;;;;;5044835;28;19931;-69
2022/05/19 03:35:59;;;;;;;;;;;14.10;99.90;;;;;;5044530;28;20096;-69
2022/05/19 03:38:25;;;;;;;;;;;14.10;99.90;;;;;;5044318;28;19928;-69
2022/05/19 03:40:53;;;;;;;;;;;14.00;99.90;;;;;;5043448;28;20217;-69
2022/05/19 03:43:20;;;;;;;;;;;14.00;99.90;;;;;;5043567;28;19921;-69
2022/05/19 03:45:47;;;;;;;;;;;14.00;99.90;;;;;;5043316;28;19922;-69
2022/05/19 03:48:13;;;;;;;;;;;14.00;99.90;;;;;;5043945;28;20093;-69
2022/05/19 03:50:43;;;;;;;;;;;14.00;99.90;;;;;;5043781;28;19928;-69
2022/05/19 03:53:10;;;;;;;;;;;13.90;99.90;;;;;;5043403;28;19921;-69
2022/05/19 03:55:37;;;;;;;;;;;14.00;99.90;;;;;;5042976;28;19935;-69
2022/05/19 03:58:05;;;;;;;;;;;14.00;99.90;;;;;;5040972;28;19921;-69
2022/05/19 04:00:32;;;;;;;;;;;13.90;99.90;;;;;;5043613;28;19967;-69
2022/05/19 04:02:58;;;;;;;;;;;14.00;99.90;;;;;;5041011;28;19984;-69
2022/05/19 04:05:25;;;;;;;;;;;14.00;99.90;;;;;;5042485;28;19928;-69
2022/05/19 04:07:52;;;;;;;;;;;14.00;99.90;;;;;;5033068;28;19928;-69
2022/05/19 04:10:19;;;;;;;;;;;14.00;99.90;;;;;;5027454;28;19925;-69
2022/05/19 04:12:45;;;;;;;;;;;14.00;99.90;;;;;;5043003;28;19921;-69
2022/05/19 04:15:14;;;;;;;;;;;14.00;99.90;;;;;;5043036;28;19928;-69
2022/05/19 04:17:40;;;;;;;;;;;14.00;99.90;;;;;;5043411;28;19943;-69
2022/05/19 04:20:09;;;;;;;;;;;14.00;99.90;;;;;;5043200;28;20012;-69
2022/05/19 04:22:36;;;;;;;;;;;14.00;99.90;;;;;;5043423;28;20120;-69
2022/05/19 04:25:03;;;;;;;;;;;14.10;99.90;;;;;;5042835;28;19927;-69
2022/05/19 04:27:30;;;;;;;;;;;14.10;99.90;;;;;;5042380;28;19925;-69
2022/05/19 04:29:57;;;;;;;;;;;14.20;99.90;;;;;;5042755;28;20124;-69
2022/05/19 04:32:25;;;;;;;;;;;14.20;99.90;;;;;;5043081;28;19921;-67
2022/05/19 04:34:51;;;;;;;;;;;14.20;99.90;;;;;;5043496;28;19921;-69
2022/05/19 04:37:18;;;;;;;;;;;14.30;99.90;;;;;;5042471;28;19943;-69
2022/05/19 04:39:45;;;;;;;;;;;14.40;99.90;;;;;;5041831;28;19951;-69
2022/05/19 04:42:12;;;;;;;;;;;14.40;99.90;;;;;;5043106;28;19928;-69
2022/05/19 04:44:39;;;;;;;;;;;14.50;99.90;;;;;;5043149;28;19928;-69
2022/05/19 04:47:06;;;;;;;;;;;14.70;99.90;;;;;;5042537;28;20123;-69
2022/05/19 04:49:34;;;;;;;;;;;14.70;99.90;;;;;;5042962;28;19921;-69
2022/05/19 04:52:01;;;;;;;;;;;14.90;99.90;;;;;;5043139;28;19921;-69
2022/05/19 04:54:27;;;;;;;;;;;14.90;99.90;;;;;;5042765;28;19928;-69
2022/05/19 04:56:54;;;;;;;;;;;15.00;99.90;;;;;;5039698;28;19921;-69
2022/05/19 04:59:21;;;;;;;;;;;15.00;99.90;;;;;;5043027;28;20231;-69
2022/05/19 05:01:48;;;;;;;;;;;15.10;99.90;;;;;;5043283;28;19927;-69
2022/05/19 05:04:15;;;;;;;;;;;15.20;99.90;;;;;;5042908;28;19959;-68
2022/05/19 05:06:43;;;;;;;;;;;15.20;99.90;;;;;;5041970;28;19921;-69
2022/05/19 05:09:10;;;;;;;;;;;15.40;99.90;;;;;;5044502;28;19927;-69
2022/05/19 05:11:37;;;;;;;;;;;15.40;99.90;;;;;;5046999;28;19928;-71
2022/05/19 05:14:04;;;;;;;;;;;15.60;99.90;;;;;;5046650;28;19940;-68
2022/05/19 05:16:31;;;;;;;;;;;15.60;99.90;;;;;;5045957;28;19943;-68
2022/05/19 05:18:57;;;;;;;;;;;15.70;99.90;;;;;;5046562;28;19925;-68
2022/05/19 05:21:24;;;;;;;;;;;15.70;99.90;;;;;;5046006;28;19928;-68
2022/05/19 05:23:52;;;;;;;;;;;15.80;99.90;;;;;;5044100;28;19921;-69
2022/05/19 05:26:18;;;;;;;;;;;15.90;99.90;;;;;;5045969;28;19960;-69
2022/05/19 05:28:45;;;;;;;;;;;16.00;99.90;;;;;;5046235;28;20115;-68
2022/05/19 05:31:11;;;;;;;;;;;16.10;99.90;;;;;;5071548;23;19998;-89
2022/05/19 05:33:38;;;;;;;;;;;16.20;99.90;;;;;;5065088;28;19927;-90
2022/05/19 05:36:05;;;;;;;;;;;16.30;99.90;;;;;;5053642;28;19921;-90
2022/05/19 05:38:32;;;;;;;;;;;16.40;99.90;;;;;;5067308;28;19927;-92
2022/05/19 05:41:02;;;;;;;;;;;16.50;99.90;;;;;;5068239;28;19980;-93
2022/05/19 05:43:30;;;;;;;;;;;16.60;99.90;;;;;;5069700;28;19975;-94
2022/05/19 05:46:04;;;;;;;;;;;16.70;99.90;;;;;;5081143;23;20267;-66
2022/05/19 05:48:31;;;;;;;;;;;16.80;99.90;;;;;;5059754;28;19920;-65
2022/05/19 05:50:57;;;;;;;;;;;16.90;99.90;;;;;;5066915;28;19927;-66
2022/05/19 05:53:24;;;;;;;;;;;16.90;99.90;;;;;;5077233;28;19920;-67
2022/05/19 05:55:50;;;;;;;;;;;17.00;99.90;;;;;;5059742;28;19921;-67
2022/05/19 05:58:18;;;;;;;;;;;17.10;99.90;;;;;;5060301;28;19921;-66
2022/05/19 06:00:45;;;;;;;;;;;17.10;99.90;;;;;;5065782;28;19921;-66
2022/05/19 06:03:12;;;;;;;;;;;17.10;99.90;;;;;;5065296;28;19931;-66
2022/05/19 06:05:45;;;;;;;;;;;17.20;99.90;;;;;;5066881;28;19920;-66
2022/05/19 06:08:11;;;;;;;;;;;17.20;99.90;;;;;;5074400;28;19920;-66
2022/05/19 06:10:38;;;;;;;;;;;17.10;99.90;;;;;;5085556;28;20168;-66
2022/05/19 06:13:05;;;;;;;;;;;17.10;99.90;;;;;;5085063;28;19920;-67
2022/05/19 06:15:33;;;;;;;;;;;17.10;99.90;;;;;;5066537;28;19921;-66
2022/05/19 06:18:00;;;;;;;;;;;17.10;99.90;;;;;;5073226;28;19936;-66
2022/05/19 06:20:27;;;;;;;;;;;17.20;99.90;;;;;;5073421;28;19920;-67
2022/05/19 06:22:53;;;;;;;;;;;17.20;99.90;;;;;;5059845;28;19924;-67
2022/05/19 06:25:22;;;;;;;;;;;17.20;99.90;;;;;;5075163;28;20208;-67
2022/05/19 06:27:49;;;;;;;;;;;17.20;99.90;;;;;;5074057;28;19920;-66
2022/05/19 06:30:16;;;;;;;;;;;17.30;99.90;;;;;;5067951;28;19927;-66
2022/05/19 06:32:45;;;;;;;;;;;17.20;99.90;;;;;;5084505;28;19920;-66
2022/05/19 06:35:12;;;;;;;;;;;17.30;99.90;;;;;;5064589;28;19927;-66
2022/05/19 06:37:39;;;;;;;;;;;17.30;99.90;;;;;;5066579;28;19943;-68
2022/05/19 06:40:06;;;;;;;;;;;17.30;99.90;;;;;;5077251;28;20204;-66
2022/05/19 06:42:33;;;;;;;;;;;17.30;99.90;;;;;;5063548;28;19927;-67
2022/05/19 06:45:00;;;;;;;;;;;17.30;99.90;;;;;;5064437;28;19929;-66
2022/05/19 06:47:28;;;;;;;;;;;17.30;99.90;;;;;;5064559;28;19921;-67
2022/05/19 06:49:56;;;;;;;;;;;17.30;99.90;;;;;;5084888;28;19929;-66
2022/05/19 06:52:24;;;;;;;;;;;17.30;99.90;;;;;;5073817;28;19921;-66
2022/05/19 06:54:51;;;;;;;;;;;17.40;99.90;;;;;;5084488;28;19921;-67
2022/05/19 06:57:19;;;;;;;;;;;17.40;99.90;;;;;;5062355;28;19921;-66
2022/05/19 06:59:46;;;;;;;;;;;17.40;99.90;;;;;;5064891;28;20212;-66
2022/05/19 07:02:13;;;;;;;;;;;17.50;99.90;;;;;;5064733;28;19984;-67
2022/05/19 07:04:39;;;;;;;;;;;17.60;99.90;;;;;;5074090;28;20224;-66
2022/05/19 07:07:08;;;;;;;;;;;17.60;99.90;;;;;;5064990;28;19921;-66
2022/05/19 07:09:35;;;;;;;;;;;17.80;99.90;;;;;;5064455;28;19928;-67
2022/05/19 07:12:02;;;;;;;;;;;17.80;99.90;;;;;;5064244;28;20108;-67
2022/05/19 07:14:29;;;;;;;;;;;17.90;99.90;;;;;;5081009;28;19924;-66
2022/05/19 07:16:55;;;;;;;;;;;18.00;99.90;;;;;;5073627;28;19920;-66
2022/05/19 07:22:09;;;;;;;;;;;18.20;99.90;;;;;;5065111;28;19924;-66
2022/05/19 07:24:35;;;;;;;;;;;18.20;99.90;;;;;;5056662;28;19925;-67
2022/05/19 07:27:02;;;;;;;;;;;18.30;99.90;;;;;;5063195;28;19929;-66
2022/05/19 07:29:29;;;;;;;;;;;18.30;99.90;;;;;;5065257;28;20200;-67
2022/05/19 07:31:58;;;;;;;;;;;18.40;99.90;;;;;;5078363;28;19982;-66
2022/05/19 07:34:25;;;;;;;;;;;18.40;99.90;;;;;;5083949;28;19965;-67
2022/05/19 07:36:51;;;;;;;;;;;18.50;99.90;;;;;;5082611;28;20131;-66
2022/05/19 07:39:19;;;;;;;;;;;18.50;99.90;;;;;;5083223;28;19921;-66
2022/05/19 07:41:46;;;;;;;;;;;18.60;99.90;;;;;;5062130;28;19925;-66
2022/05/19 07:44:13;;;;;;;;;;;18.60;99.90;;;;;;5063779;28;19927;-66
2022/05/19 07:46:40;;;;;;;;;;;18.70;99.90;;;;;;5064199;28;19935;-66
2022/05/19 07:49:07;;;;;;;;;;;18.70;99.90;;;;;;5063749;28;19992;-66
2022/05/19 07:51:36;;;;;;;;;;;18.80;99.90;;;;;;5065292;28;19920;-66
2022/05/19 07:54:03;;;;;;;;;;;18.80;99.90;;;;;;5067381;28;19967;-66
2022/05/19 07:56:31;;;;;;;;;;;18.90;99.90;;;;;;5070276;28;19925;-67
2022/05/19 07:58:58;;;;;;;;;;;19.00;99.90;;;;;;5063208;28;19922;-66
2022/05/19 08:01:25;;;;;;;;;;;19.00;99.90;;;;;;5065214;28;19920;-67
2022/05/19 08:03:51;;;;;;;;;;;19.00;99.90;;;;;;5065938;28;20334;-67
2022/05/19 08:06:18;;;;;;;;;;;19.10;99.90;;;;;;5081218;28;19926;-66
2022/05/19 08:08:44;;;;;;;;;;;19.10;99.90;;;;;;5079824;28;19928;-66
2022/05/19 08:11:11;;;;;;;;;;;19.20;99.90;;;;;;5083546;28;19926;-67
2022/05/19 08:16:23;;;;;;;;;;;19.20;99.90;;;;;;5080958;28;19928;-66
2022/05/19 08:18:50;;;;;;;;;;;19.40;99.90;;;;;;5068093;28;19928;-67
2022/05/19 08:21:17;;;;;;;;;;;19.50;99.90;;;;;;5061968;28;19920;-67
2022/05/19 08:23:45;;;;;;;;;;;19.50;99.90;;;;;;5056906;28;19921;-67
2022/05/19 08:26:12;;;;;;;;;;;19.60;99.90;;;;;;5066888;28;19924;-67
2022/05/19 08:28:41;;;;;;;;;;;19.70;99.90;;;;;;5081158;28;19924;-67
2022/05/19 08:31:10;;;;;;;;;;;19.80;99.90;;;;;;5070798;28;20242;-68
2022/05/19 08:33:37;;;;;;;;;;;19.90;99.90;;;;;;5063472;28;20101;-67
2022/05/19 08:36:04;;;;;;;;;;;19.90;99.90;;;;;;5062472;28;19928;-67
2022/05/19 08:38:31;;;;;;;;;;;20.10;99.90;;;;;;5071589;28;19920;-67
2022/05/19 08:41:00;;;;;;;;;;;20.20;99.90;;;;;;5082989;28;20000;-67
2022/05/19 08:43:30;;;;;;;;;;;20.20;99.90;;;;;;5082820;28;19920;-66
2022/05/19 08:46:00;;;;;;;;;;;20.30;99.90;;;;;;5086533;28;19927;-67
2022/05/19 08:48:28;;;;;;;;;;;20.50;99.90;;;;;;5086755;28;19920;-67
2022/05/19 08:50:56;;;;;;;;;;;20.50;99.90;;;;;;5086906;28;20120;-67
2022/05/19 08:53:24;;;;;;;;;;;20.70;99.90;;;;;;5071480;28;19920;-66
2022/05/19 08:55:52;;;;;;;;;;;20.90;99.90;;;;;;5072098;28;19957;-67
2022/05/19 08:58:26;;;;;;;;;;;21.00;99.90;;;;;;5073748;28;20151;-66
2022/05/19 09:00:54;;;;;;;;;;;21.20;99.90;;;;;;5069193;28;19960;-66
2022/05/19 09:03:24;;;;;;;;;;;21.40;99.90;;;;;;5061841;28;19920;-67
2022/05/19 09:06:01;;;;;;;;;;;21.50;99.90;;;;;;5086149;28;20203;-67
2022/05/19 09:08:33;;;;;;;;;;;21.60;99.90;;;;;;5081613;28;19920;-66
2022/05/19 09:11:03;;;;;;;;;;;21.70;99.90;;;;;;5086598;28;19920;-67
2022/05/19 09:13:32;;;;;;;;;;;21.80;99.90;;;;;;5086438;28;19920;-67
2022/05/19 09:16:00;;;;;;;;;;;21.90;99.90;;;;;;5085863;28;19927;-67
2022/05/19 09:18:41;;;;;;;;;;;22.00;99.90;;;;;;5073310;28;19927;-67
2022/05/19 09:21:08;;;;;;;;;;;22.10;99.90;;;;;;5082100;28;19920;-67
2022/05/19 09:23:35;;;;;;;;;;;22.10;99.90;;;;;;5074079;28;19944;-67
2022/05/19 09:26:06;;;;;;;;;;;22.20;99.90;;;;;;5066276;28;19974;-67
2022/05/19 09:28:33;;;;;;;;;;;22.30;99.90;;;;;;5078825;28;20234;-67
2022/05/19 09:31:00;;;;;;;;;;;22.40;99.90;;;;;;5075397;28;19920;-67
2022/05/19 09:33:32;;;;;;;;;;;22.60;99.90;;;;;;5086021;28;20207;-67
2022/05/19 09:36:00;;;;;;;;;;;22.70;99.90;;;;;;5085523;28;19927;-67
2022/05/19 09:38:31;;;;;;;;;;;22.70;99.90;;;;;;5046055;28;19977;-67
2022/05/19 09:41:00;;;;;;;;;;;22.70;99.90;;;;;;5046900;28;19927;-67
2022/05/19 09:43:27;;;;;;;;;;;22.70;99.90;;;;;;5065985;28;19920;-67
2022/05/19 09:46:03;;;;;;;;;;;22.70;99.90;;;;;;5065604;28;19956;-67
2022/05/19 09:48:33;;;;;;;;;;;22.90;99.90;;;;;;5052638;28;19928;-66
2022/05/19 09:51:01;;;;;;;;;;;23.00;99.90;;;;;;5065988;28;19921;-67
2022/05/19 09:53:29;;;;;;;;;;;23.20;99.90;;;;;;5046067;28;19925;-66
2022/05/19 09:55:56;;;;;;;;;;;23.20;99.90;;;;;;5058976;28;19920;-66
2022/05/19 09:58:23;;;;;;;;;;;23.30;99.90;;;;;;5065826;28;19920;-67
2022/05/19 10:00:52;;;;;;;;;;;23.40;99.90;;;;;;5076548;28;19927;-68
2022/05/19 10:03:21;;;;;;;;;;;23.60;99.90;;;;;;5084617;28;20108;-67
2022/05/19 10:05:51;;;;;;;;;;;23.70;99.90;;;;;;5085135;28;20107;-67
2022/05/19 10:08:19;;;;;;;;;;;23.70;99.90;;;;;;5083555;28;19920;-66
2022/05/19 10:10:48;;;;;;;;;;;23.80;99.90;;;;;;5082085;28;19921;-67
2022/05/19 10:13:16;;;;;;;;;;;24.00;99.90;;;;;;5074900;28;19958;-68
2022/05/19 10:15:54;;;;;;;;;;;24.10;99.90;;;;;;5083388;28;19929;-68
2022/05/19 10:18:31;;;;;;;;;;;24.30;99.90;;;;;;5063289;28;19921;-67
2022/05/19 10:21:07;;;;;;;;;;;24.40;99.90;;;;;;5067723;28;19924;-67
2022/05/19 10:23:38;;;;;;;;;;;24.60;99.90;;;;;;5065062;28;20222;-67
2022/05/19 10:26:14;;;;;;;;;;;24.80;99.90;;;;;;5080556;28;20234;-67
2022/05/19 10:31:47;;;;;;;;;;;25.10;99.90;;;;;;5070851;28;19963;-67
2022/05/19 10:34:33;;;;;;;;;;;25.30;99.90;;;;;;5064941;28;19975;-67
2022/05/19 10:37:06;;;;;;;;;;;25.50;99.90;;;;;;5060886;28;19921;-67
2022/05/19 10:39:41;;;;;;;;;;;25.60;99.90;;;;;;5084671;28;20230;-67
2022/05/19 10:42:14;;;;;;;;;;;25.80;99.90;;;;;;5080097;28;19966;-67
2022/05/19 10:45:02;;;;;;;;;;;26.00;99.90;;;;;;5084875;28;19927;-67
2022/05/19 10:47:37;;;;;;;;;;;26.20;99.90;;;;;;5082512;28;20230;-67
2022/05/19 10:50:17;;;;;;;;;;;26.30;99.90;;;;;;5069544;28;19927;-67
2022/05/19 10:52:56;;;;;;;;;;;26.50;99.90;;;;;;5065209;28;19943;-67
2022/05/19 10:55:24;;;;;;;;;;;26.60;99.90;;;;;;5061811;28;19929;-67
2022/05/19 10:57:57;;;;;;;;;;;26.80;99.90;;;;;;5064974;28;19992;-66
2022/05/19 11:00:27;;;;;;;;;;;26.80;99.90;;;;;;5064432;28;20034;-67
2022/05/19 11:03:18;;;;;;;;;;;27.00;99.90;;;;;;5069492;28;19929;-67
2022/05/19 11:05:49;;;;;;;;;;;27.20;99.90;;;;;;5060703;28;19920;-68
2022/05/19 11:08:22;;;;;;;;;;;27.40;99.90;;;;;;5074434;28;19966;-67
2022/05/19 11:10:55;;;;;;;;;;;27.60;99.10;;;;;;5084528;28;19921;-67
2022/05/19 11:13:29;;;;;;;;;;;27.80;99.90;;;;;;5073117;28;19920;-67
2022/05/19 11:15:59;;;;;;;;;;;27.80;97.90;;;;;;5074808;28;19920;-67
2022/05/19 11:18:28;;;;;;;;;;;27.90;98.00;;;;;;5067121;28;19921;-67
2022/05/19 11:21:03;;;;;;;;;;;27.80;97.90;;;;;;5065184;28;19964;-67
2022/05/19 11:23:35;;;;;;;;;;;28.00;98.10;;;;;;5058504;28;19967;-68
2022/05/19 11:28:52;;;;;;;;;;;28.40;96.10;;;;;;5083115;28;19922;-67
2022/05/19 11:31:24;;;;;;;;;;;28.70;95.70;;;;;;5082379;28;19921;-68
2022/05/19 11:33:53;;;;;;;;;;;28.70;95.20;;;;;;5075290;28;20182;-67
2022/05/19 11:36:22;;;;;;;;;;;28.90;95.40;;;;;;5082982;28;20234;-67
2022/05/19 11:38:53;;;;;;;;;;;29.10;95.40;;;;;;5083444;28;19928;-67
2022/05/19 11:41:21;;;;;;;;;;;29.30;95.50;;;;;;5080841;28;20230;-68
2022/05/19 11:43:52;;;;;;;;;;;29.50;95.10;;;;;;5097900;22;19921;-68
2022/05/19 11:46:21;;;;;;;;;;;29.70;94.50;;;;;;5083540;28;19924;-67
2022/05/19 11:57:19;;;;;;;;;;;30.10;94.50;;;;;;5075720;28;19927;-68
2022/05/19 11:59:50;;;;;;;;;;;30.10;93.50;;;;;;5083978;28;19920;-69
2022/05/19 12:02:18;;;;;;;;;;;30.10;93.90;;;;;;5100393;28;19920;-68
2022/05/19 12:04:48;;;;;;;;;;;30.20;93.00;;;;;;5104195;28;19935;-68
2022/05/19 12:07:22;;;;;;;;;;;30.40;93.10;;;;;;5081939;28;19920;-68
2022/05/19 12:09:53;;;;;;;;;;;30.40;92.30;;;;;;5083790;28;19924;-68
2022/05/19 12:12:22;;;;;;;;;;;30.60;92.30;;;;;;5083691;28;19936;-68
2022/05/19 12:14:50;;;;;;;;;;;30.70;91.70;;;;;;5083985;28;19966;-68
2022/05/19 12:17:33;;;;;;;;;;;30.80;91.50;;;;;;5080443;28;19932;-68
2022/05/19 12:20:03;;;;;;;;;;;31.00;92.20;;;;;;5062593;28;19925;-68
2022/05/19 12:22:32;;;;;;;;;;;31.00;91.00;;;;;;5063941;28;19928;-68
2022/05/19 12:25:08;;;;;;;;;;;31.00;90.80;;;;;;5063577;28;19931;-68
2022/05/19 12:27:42;;;;;;;;;;;31.00;90.70;;;;;;5061299;28;19920;-68
2022/05/19 12:33:01;;;;;;;;;;;31.10;91.50;;;;;;5059282;28;20204;-68
2022/05/19 12:35:28;;;;;;;;;;;31.00;90.80;;;;;;5062199;28;19921;-68
2022/05/19 12:38:04;;;;;;;;;;;31.10;91.60;;;;;;5060569;28;19921;-70
2022/05/19 12:40:38;;;;;;;;;;;31.00;91.40;;;;;;5060996;28;19929;-67
2022/05/19 12:43:09;;;;;;;;;;;31.10;92.70;;;;;;5063381;28;19921;-68
2022/05/19 12:45:42;;;;;;;;;;;31.10;91.20;;;;;;5062743;28;19921;-68
2022/05/19 12:51:12;;;;;;;;;;;31.50;92.10;;;;;;5060904;28;19917;-68
2022/05/19 12:53:40;;;;;;;;;;;31.60;91.00;;;;;;5063352;28;20261;-68
2022/05/19 12:56:09;;;;;;;;;;;31.70;91.90;;;;;;5072489;28;19921;-67
2022/05/19 12:59:03;;;;;;;;;;;31.80;90.70;;;;;;5083348;28;19924;-68
2022/05/19 13:01:31;;;;;;;;;;;32.00;90.20;;;;;;5038243;28;19927;-68
2022/05/19 13:04:17;;;;;;;;;;;31.90;90.80;;;;;;5063419;28;19920;-68
2022/05/19 13:06:45;;;;;;;;;;;31.90;90.70;;;;;;5062671;28;19928;-69
2022/05/19 13:09:14;;;;;;;;;;;32.00;90.30;;;;;;5081556;28;19932;-68
2022/05/19 13:11:47;;;;;;;;;;;31.90;90.10;;;;;;5083440;28;20195;-68
2022/05/19 13:14:15;;;;;;;;;;;31.70;90.40;;;;;;5083202;28;20226;-68
2022/05/19 13:16:43;;;;;;;;;;;31.70;91.40;;;;;;5082684;28;20089;-67
2022/05/19 13:19:14;;;;;;;;;;;31.60;90.60;;;;;;5083136;28;20212;-71
2022/05/19 13:21:45;;;;;;;;;;;31.70;91.00;;;;;;5083223;28;19920;-68
2022/05/19 13:24:13;;;;;;;;;;;31.90;91.50;;;;;;5083083;28;19928;-68
2022/05/19 13:26:40;;;;;;;;;;;32.10;91.90;;;;;;5069290;28;20134;-67
2022/05/19 13:31:55;;;;;;;;;;;31.90;92.70;;;;;;5084856;28;19927;-68
2022/05/19 13:34:22;;;;;;;;;;;32.00;91.70;;;;;;5081586;28;19921;-68
2022/05/19 13:36:52;;;;;;;;;;;32.30;91.90;;;;;;5067220;28;19927;-68
2022/05/19 13:39:20;;;;;;;;;;;32.50;91.10;;;;;;5063721;28;19921;-68
2022/05/19 13:41:48;;;;;;;;;;;32.60;90.70;;;;;;5080702;28;19944;-68
2022/05/19 13:44:18;;;;;;;;;;;32.50;90.90;;;;;;5084069;28;20324;-67
2022/05/19 13:46:45;;;;;;;;;;;32.30;90.90;;;;;;5077830;28;19931;-68
2022/05/19 13:49:15;;;;;;;;;;;32.30;92.00;;;;;;5083629;28;19920;-69
2022/05/19 13:51:43;;;;;;;;;;;32.60;91.50;;;;;;5085751;28;19958;-70
2022/05/19 13:54:10;;;;;;;;;;;32.60;90.70;;;;;;5086262;28;19927;-69
2022/05/19 13:56:39;;;;;;;;;;;32.50;90.10;;;;;;5085742;28;19956;-70
2022/05/19 13:59:07;;;;;;;;;;;32.60;90.50;;;;;;5086143;28;19927;-69
2022/05/19 14:01:37;;;;;;;;;;;32.80;91.10;;;;;;5073432;28;19924;-70
2022/05/19 14:04:06;;;;;;;;;;;33.00;90.00;;;;;;5069688;28;19920;-69
2022/05/19 14:06:34;;;;;;;;;;;32.80;89.10;;;;;;5066584;28;20069;-69
2022/05/19 14:09:01;;;;;;;;;;;32.80;89.00;;;;;;5079363;28;20208;-69
2022/05/19 14:11:28;;;;;;;;;;;32.90;90.00;;;;;;5085718;28;19921;-70
2022/05/19 14:13:56;;;;;;;;;;;33.30;90.70;;;;;;5072751;28;20112;-70
2022/05/19 14:16:24;;;;;;;;;;;33.70;90.90;;;;;;5074727;28;20212;-69
2022/05/19 14:18:55;;;;;;;;;;;34.10;89.80;;;;;;5073594;28;19927;-69
2022/05/19 14:21:23;;;;;;;;;;;34.40;88.60;;;;;;5065595;28;19921;-69
2022/05/19 14:23:51;;;;;;;;;;;34.70;85.80;;;;;;5065742;28;19927;-69
2022/05/19 14:26:24;;;;;;;;;;;34.90;85.60;;;;;;5078870;28;19920;-70
2022/05/19 14:28:50;;;;;;;;;;;35.10;85.50;;;;;;5085338;28;19991;-69
2022/05/19 14:31:19;;;;;;;;;;;35.10;84.00;;;;;;5085317;28;20204;-70
2022/05/19 14:33:54;;;;;;;;;;;34.80;81.20;;;;;;5085162;28;20142;-69
2022/05/19 14:36:22;;;;;;;;;;;34.80;81.60;;;;;;5084187;28;19987;-70
2022/05/19 14:38:52;;;;;;;;;;;34.90;82.00;;;;;;5085245;28;19942;-70
2022/05/19 14:44:08;;;;;;;;;;;34.60;80.10;;;;;;5069268;28;19935;-70
2022/05/19 14:46:40;;;;;;;;;;;34.40;81.90;;;;;;5069735;28;19921;-70
2022/05/19 14:49:11;;;;;;;;;;;34.40;83.60;;;;;;5062976;28;20107;-70
2022/05/19 14:51:39;;;;;;;;;;;34.50;81.50;;;;;;5064820;28;19921;-69
2022/05/19 14:54:08;;;;;;;;;;;34.00;82.90;;;;;;5079200;28;19925;-69
2022/05/19 14:56:36;;;;;;;;;;;34.00;84.30;;;;;;5075944;28;19920;-70